sensor_id;sensor_type;location;lat;lon;timestamp;temperature;humidity
57108;DHT22;42987;52.916;6.542;2022-07-24T00:02:24;15.80;99.90
57108;DHT22;42987;52.916;6.542;2022-07-24T00:04:50;15.70;99.90
57108;DHT22;42987;52.916;6.542;2022-07-24T00:07:19;15.70;99.90
57108;DHT22;42987;52.916;6.542;2022-07-24T00:09:44;15.70;99.90
57108;DHT22;42987;52.916;6.542;2022-07-24T00:12:10;15.70;99.90
57108;DHT22;42987;52.916;6.542;2022-07-24T00:14:36;15.70;99.90
57108;DHT22;42987;52.916;6.542;2022-07-24T00:17:02;15.70;99.90
57108;DHT22;42987;52.916;6.542;2022-07-24T00:19:28;15.70;99.90
57108;DHT22;42987;52.916;6.542;2022-07-24T00:21:53;15.70;99.90
57108;DHT22;42987;52.916;6.542;2022-07-24T00:24:28;15.60;99.90
57108;DHT22;42987;52.916;6.542;2022-07-24T00:26:54;15.60;99.90
57108;DHT22;42987;52.916;6.542;2022-07-24T00:29:20;15.60;99.90
57108;DHT22;42987;52.916;6.542;2022-07-24T00:31:45;15.60;99.90
57108;DHT22;42987;52.916;6.542;2022-07-24T00:34:11;15.60;99.90
57108;DHT22;42987;52.916;6.542;2022-07-24T00:36:37;15.60;99.90
57108;DHT22;42987;52.916;6.542;2022-07-24T00:39:03;15.60;99.90
57108;DHT22;42987;52.916;6.542;2022-07-24T00:41:29;15.60;99.90
57108;DHT22;42987;52.916;6.542;2022-07-24T00:44:13;15.50;99.90
57108;DHT22;42987;52.916;6.542;2022-07-24T00:46:41;15.60;99.90
57108;DHT22;42987;52.916;6.542;2022-07-24T00:49:09;15.50;99.90
57108;DHT22;42987;52.916;6.542;2022-07-24T00:51:35;15.50;99.90
57108;DHT22;42987;52.916;6.542;2022-07-24T00:54:05;15.50;99.90
57108;DHT22;42987;52.916;6.542;2022-07-24T00:56:31;15.50;99.90
57108;DHT22;42987;52.916;6.542;2022-07-24T00:58:57;15.60;99.90
57108;DHT22;42987;52.916;6.542;2022-07-24T01:01:24;15.50;99.90
57108;DHT22;42987;52.916;6.542;2022-07-24T01:03:50;15.50;99.90
57108;DHT22;42987;52.916;6.542;2022-07-24T01:06:16;15.50;99.90
57108;DHT22;42987;52.916;6.542;2022-07-24T01:08:42;15.50;99.90
57108;DHT22;42987;52.916;6.542;2022-07-24T01:11:09;15.50;99.90
57108;DHT22;42987;52.916;6.542;2022-07-24T01:13:35;15.50;99.90
57108;DHT22;42987;52.916;6.542;2022-07-24T01:16:02;15.50;99.90
57108;DHT22;42987;52.916;6.542;2022-07-24T01:18:28;15.50;99.90
57108;DHT22;42987;52.916;6.542;2022-07-24T01:20:53;15.50;99.90
57108;DHT22;42987;52.916;6.542;2022-07-24T01:23:22;15.50;99.90
57108;DHT22;42987;52.916;6.542;2022-07-24T01:25:48;15.40;99.90
57108;DHT22;42987;52.916;6.542;2022-07-24T01:28:14;15.40;99.90
57108;DHT22;42987;52.916;6.542;2022-07-24T01:30:40;15.40;99.90
57108;DHT22;42987;52.916;6.542;2022-07-24T01:33:06;15.40;99.90
57108;DHT22;42987;52.916;6.542;2022-07-24T01:35:32;15.40;99.90
57108;DHT22;42987;52.916;6.542;2022-07-24T01:37:58;15.40;99.90
57108;DHT22;42987;52.916;6.542;2022-07-24T01:40:23;15.40;99.90
57108;DHT22;42987;52.916;6.542;2022-07-24T01:42:49;15.40;99.90
57108;DHT22;42987;52.916;6.542;2022-07-24T01:45:16;15.40;99.90
57108;DHT22;42987;52.916;6.542;2022-07-24T01:47:43;15.30;99.90
57108;DHT22;42987;52.916;6.542;2022-07-24T01:50:11;15.40;99.90
57108;DHT22;42987;52.916;6.542;2022-07-24T01:52:37;15.40;99.90
57108;DHT22;42987;52.916;6.542;2022-07-24T01:55:03;15.30;99.90
57108;DHT22;42987;52.916;6.542;2022-07-24T01:57:29;15.30;99.90
57108;DHT22;42987;52.916;6.542;2022-07-24T01:59:55;15.30;99.90
57108;DHT22;42987;52.916;6.542;2022-07-24T02:02:20;15.30;99.90
57108;DHT22;42987;52.916;6.542;2022-07-24T02:04:47;15.30;99.90
57108;DHT22;42987;52.916;6.542;2022-07-24T02:07:12;15.30;99.90
57108;DHT22;42987;52.916;6.542;2022-07-24T02:09:38;15.30;99.90
57108;DHT22;42987;52.916;6.542;2022-07-24T02:12:04;15.30;99.90
57108;DHT22;42987;52.916;6.542;2022-07-24T02:14:30;15.30;99.90
57108;DHT22;42987;52.916;6.542;2022-07-24T02:16:55;15.30;99.90
57108;DHT22;42987;52.916;6.542;2022-07-24T02:19:21;15.30;99.90
57108;DHT22;42987;52.916;6.542;2022-07-24T02:21:50;15.20;99.90
57108;DHT22;42987;52.916;6.542;2022-07-24T02:24:16;15.20;99.90
57108;DHT22;42987;52.916;6.542;2022-07-24T02:26:41;15.20;99.90
57108;DHT22;42987;52.916;6.542;2022-07-24T02:29:07;15.20;99.90
57108;DHT22;42987;52.916;6.542;2022-07-24T02:31:33;15.20;99.90
57108;DHT22;42987;52.916;6.542;2022-07-24T02:34:02;15.30;99.90
57108;DHT22;42987;52.916;6.542;2022-07-24T02:36:28;15.30;99.90
57108;DHT22;42987;52.916;6.542;2022-07-24T02:38:54;15.30;99.90
57108;DHT22;42987;52.916;6.542;2022-07-24T02:41:20;15.30;99.90
57108;DHT22;42987;52.916;6.542;2022-07-24T02:43:45;15.30;99.90
57108;DHT22;42987;52.916;6.542;2022-07-24T02:46:11;15.30;99.90
57108;DHT22;42987;52.916;6.542;2022-07-24T02:48:37;15.40;99.90
57108;DHT22;42987;52.916;6.542;2022-07-24T02:51:03;15.30;99.90
57108;DHT22;42987;52.916;6.542;2022-07-24T02:53:29;15.30;99.90
57108;DHT22;42987;52.916;6.542;2022-07-24T02:55:55;15.30;99.90
57108;DHT22;42987;52.916;6.542;2022-07-24T02:58:21;15.40;99.90
57108;DHT22;42987;52.916;6.542;2022-07-24T03:00:47;15.30;99.90
57108;DHT22;42987;52.916;6.542;2022-07-24T03:03:13;15.30;99.90
57108;DHT22;42987;52.916;6.542;2022-07-24T03:05:39;15.40;99.90
57108;DHT22;42987;52.916;6.542;2022-07-24T03:08:04;15.30;99.90
57108;DHT22;42987;52.916;6.542;2022-07-24T03:10:33;15.30;99.90
57108;DHT22;42987;52.916;6.542;2022-07-24T03:12:59;15.30;99.90
57108;DHT22;42987;52.916;6.542;2022-07-24T03:15:25;15.40;99.90
57108;DHT22;42987;52.916;6.542;2022-07-24T03:17:55;15.30;99.90
57108;DHT22;42987;52.916;6.542;2022-07-24T03:20:27;15.40;99.90
57108;DHT22;42987;52.916;6.542;2022-07-24T03:22:54;15.30;99.90
57108;DHT22;42987;52.916;6.542;2022-07-24T03:25:21;15.30;99.90
57108;DHT22;42987;52.916;6.542;2022-07-24T03:27:47;15.30;99.90
57108;DHT22;42987;52.916;6.542;2022-07-24T03:30:14;15.30;99.90
57108;DHT22;42987;52.916;6.542;2022-07-24T03:32:40;15.20;99.90
57108;DHT22;42987;52.916;6.542;2022-07-24T03:35:06;15.30;99.90
57108;DHT22;42987;52.916;6.542;2022-07-24T03:37:32;15.30;99.90
57108;DHT22;42987;52.916;6.542;2022-07-24T03:39:58;15.30;99.90
57108;DHT22;42987;52.916;6.542;2022-07-24T03:42:24;15.30;99.90
57108;DHT22;42987;52.916;6.542;2022-07-24T03:44:50;15.30;99.90
57108;DHT22;42987;52.916;6.542;2022-07-24T03:47:15;15.30;99.90
57108;DHT22;42987;52.916;6.542;2022-07-24T03:49:41;15.30;99.90
57108;DHT22;42987;52.916;6.542;2022-07-24T03:52:07;15.30;99.90
57108;DHT22;42987;52.916;6.542;2022-07-24T03:54:33;15.30;99.90
57108;DHT22;42987;52.916;6.542;2022-07-24T03:56:59;15.30;99.90
57108;DHT22;42987;52.916;6.542;2022-07-24T03:59:26;15.30;99.90
57108;DHT22;42987;52.916;6.542;2022-07-24T04:01:52;15.30;99.90
57108;DHT22;42987;52.916;6.542;2022-07-24T04:04:18;15.30;99.90
57108;DHT22;42987;52.916;6.542;2022-07-24T04:06:44;15.30;99.90
57108;DHT22;42987;52.916;6.542;2022-07-24T04:09:10;15.30;99.90
57108;DHT22;42987;52.916;6.542;2022-07-24T04:11:36;15.30;99.90
57108;DHT22;42987;52.916;6.542;2022-07-24T04:14:02;15.30;99.90
57108;DHT22;42987;52.916;6.542;2022-07-24T04:16:27;15.30;99.90
57108;DHT22;42987;52.916;6.542;2022-07-24T04:18:53;15.30;99.90
57108;DHT22;42987;52.916;6.542;2022-07-24T04:21:19;15.30;99.90
57108;DHT22;42987;52.916;6.542;2022-07-24T04:23:45;15.30;99.90
57108;DHT22;42987;52.916;6.542;2022-07-24T04:26:14;15.40;99.90
57108;DHT22;42987;52.916;6.542;2022-07-24T04:28:39;15.30;99.90
57108;DHT22;42987;52.916;6.542;2022-07-24T04:31:07;15.40;99.90
57108;DHT22;42987;52.916;6.542;2022-07-24T04:33:33;15.40;99.90
57108;DHT22;42987;52.916;6.542;2022-07-24T04:35:59;15.40;99.90
57108;DHT22;42987;52.916;6.542;2022-07-24T04:38:28;15.40;99.90
57108;DHT22;42987;52.916;6.542;2022-07-24T04:40:53;15.40;99.90
57108;DHT22;42987;52.916;6.542;2022-07-24T04:43:19;15.50;99.90
57108;DHT22;42987;52.916;6.542;2022-07-24T04:45:45;15.50;99.90
57108;DHT22;42987;52.916;6.542;2022-07-24T04:48:11;15.50;99.90
57108;DHT22;42987;52.916;6.542;2022-07-24T04:50:36;15.50;99.90
57108;DHT22;42987;52.916;6.542;2022-07-24T04:53:03;15.50;99.90
57108;DHT22;42987;52.916;6.542;2022-07-24T04:55:28;15.60;99.90
57108;DHT22;42987;52.916;6.542;2022-07-24T04:57:54;15.60;99.90
57108;DHT22;42987;52.916;6.542;2022-07-24T05:00:20;15.60;99.90
57108;DHT22;42987;52.916;6.542;2022-07-24T05:02:46;15.60;99.90
57108;DHT22;42987;52.916;6.542;2022-07-24T05:05:11;15.70;99.90
57108;DHT22;42987;52.916;6.542;2022-07-24T05:07:37;15.70;99.90
57108;DHT22;42987;52.916;6.542;2022-07-24T05:10:04;15.80;99.90
57108;DHT22;42987;52.916;6.542;2022-07-24T05:12:30;15.80;99.90
57108;DHT22;42987;52.916;6.542;2022-07-24T05:14:56;15.80;99.90
57108;DHT22;42987;52.916;6.542;2022-07-24T05:17:22;15.90;99.90
57108;DHT22;42987;52.916;6.542;2022-07-24T05:19:48;15.90;99.90
57108;DHT22;42987;52.916;6.542;2022-07-24T05:22:14;15.90;99.90
57108;DHT22;42987;52.916;6.542;2022-07-24T05:24:40;16.00;99.90
57108;DHT22;42987;52.916;6.542;2022-07-24T05:27:06;16.00;99.90
57108;DHT22;42987;52.916;6.542;2022-07-24T05:29:32;16.10;99.90
57108;DHT22;42987;52.916;6.542;2022-07-24T05:31:57;16.10;99.90
57108;DHT22;42987;52.916;6.542;2022-07-24T05:34:23;16.20;99.90
57108;DHT22;42987;52.916;6.542;2022-07-24T05:36:49;16.20;99.90
57108;DHT22;42987;52.916;6.542;2022-07-24T05:39:17;16.40;99.90
57108;DHT22;42987;52.916;6.542;2022-07-24T05:41:42;16.40;99.90
57108;DHT22;42987;52.916;6.542;2022-07-24T05:44:08;16.50;99.90
57108;DHT22;42987;52.916;6.542;2022-07-24T05:46:34;16.50;99.90
57108;DHT22;42987;52.916;6.542;2022-07-24T05:49:00;16.60;99.90
57108;DHT22;42987;52.916;6.542;2022-07-24T05:51:25;16.60;99.90
57108;DHT22;42987;52.916;6.542;2022-07-24T05:53:55;16.70;99.90
57108;DHT22;42987;52.916;6.542;2022-07-24T05:56:20;16.80;99.90
57108;DHT22;42987;52.916;6.542;2022-07-24T05:58:46;16.80;99.90
57108;DHT22;42987;52.916;6.542;2022-07-24T06:01:12;16.90;99.90
57108;DHT22;42987;52.916;6.542;2022-07-24T06:03:38;16.90;99.90
57108;DHT22;42987;52.916;6.542;2022-07-24T06:06:05;16.90;99.90
57108;DHT22;42987;52.916;6.542;2022-07-24T06:08:31;16.90;99.90
57108;DHT22;42987;52.916;6.542;2022-07-24T06:10:56;17.00;99.90
57108;DHT22;42987;52.916;6.542;2022-07-24T06:13:25;17.00;99.90
57108;DHT22;42987;52.916;6.542;2022-07-24T06:15:51;17.10;99.90
57108;DHT22;42987;52.916;6.542;2022-07-24T06:18:17;17.20;99.90
57108;DHT22;42987;52.916;6.542;2022-07-24T06:20:43;17.40;99.90
57108;DHT22;42987;52.916;6.542;2022-07-24T06:23:09;17.40;99.90
57108;DHT22;42987;52.916;6.542;2022-07-24T06:25:34;17.50;99.90
57108;DHT22;42987;52.916;6.542;2022-07-24T06:28:00;17.70;99.90
57108;DHT22;42987;52.916;6.542;2022-07-24T06:30:27;17.80;99.90
57108;DHT22;42987;52.916;6.542;2022-07-24T06:32:56;17.90;99.90
57108;DHT22;42987;52.916;6.542;2022-07-24T06:35:22;18.10;99.90
57108;DHT22;42987;52.916;6.542;2022-07-24T06:37:48;18.20;99.90
57108;DHT22;42987;52.916;6.542;2022-07-24T06:40:18;18.30;99.90
57108;DHT22;42987;52.916;6.542;2022-07-24T06:42:45;18.40;99.90
57108;DHT22;42987;52.916;6.542;2022-07-24T06:45:11;18.40;99.90
57108;DHT22;42987;52.916;6.542;2022-07-24T06:47:38;18.60;99.90
57108;DHT22;42987;52.916;6.542;2022-07-24T06:50:04;18.60;99.90
57108;DHT22;42987;52.916;6.542;2022-07-24T06:52:30;18.80;99.90
57108;DHT22;42987;52.916;6.542;2022-07-24T06:54:57;18.90;99.90
57108;DHT22;42987;52.916;6.542;2022-07-24T06:57:24;19.00;99.90
57108;DHT22;42987;52.916;6.542;2022-07-24T06:59:52;19.10;99.90
57108;DHT22;42987;52.916;6.542;2022-07-24T07:02:19;19.20;99.90
57108;DHT22;42987;52.916;6.542;2022-07-24T07:04:45;19.40;99.90
57108;DHT22;42987;52.916;6.542;2022-07-24T07:07:10;19.50;99.90
57108;DHT22;42987;52.916;6.542;2022-07-24T07:09:36;19.60;99.90
57108;DHT22;42987;52.916;6.542;2022-07-24T07:12:05;19.70;99.90
57108;DHT22;42987;52.916;6.542;2022-07-24T07:14:31;19.80;99.90
57108;DHT22;42987;52.916;6.542;2022-07-24T07:16:57;20.00;99.90
57108;DHT22;42987;52.916;6.542;2022-07-24T07:19:23;20.10;99.90
57108;DHT22;42987;52.916;6.542;2022-07-24T07:21:49;20.10;99.90
57108;DHT22;42987;52.916;6.542;2022-07-24T07:24:14;20.30;99.90
57108;DHT22;42987;52.916;6.542;2022-07-24T07:26:40;20.40;99.90
57108;DHT22;42987;52.916;6.542;2022-07-24T07:29:06;20.50;99.90
57108;DHT22;42987;52.916;6.542;2022-07-24T07:31:32;20.60;99.90
57108;DHT22;42987;52.916;6.542;2022-07-24T07:33:58;20.80;99.90
57108;DHT22;42987;52.916;6.542;2022-07-24T07:36:25;21.00;99.90
57108;DHT22;42987;52.916;6.542;2022-07-24T07:38:50;21.20;99.90
57108;DHT22;42987;52.916;6.542;2022-07-24T07:41:16;21.30;99.90
57108;DHT22;42987;52.916;6.542;2022-07-24T07:43:46;21.40;99.90
57108;DHT22;42987;52.916;6.542;2022-07-24T07:46:14;21.60;99.90
57108;DHT22;42987;52.916;6.542;2022-07-24T07:48:41;21.80;99.90
57108;DHT22;42987;52.916;6.542;2022-07-24T07:51:07;21.90;99.90
57108;DHT22;42987;52.916;6.542;2022-07-24T07:53:33;22.00;99.90
57108;DHT22;42987;52.916;6.542;2022-07-24T07:55:59;22.00;99.90
57108;DHT22;42987;52.916;6.542;2022-07-24T07:58:25;22.00;99.90
57108;DHT22;42987;52.916;6.542;2022-07-24T08:00:55;22.00;99.90
57108;DHT22;42987;52.916;6.542;2022-07-24T08:03:21;22.20;99.90
57108;DHT22;42987;52.916;6.542;2022-07-24T08:05:47;22.30;99.90
57108;DHT22;42987;52.916;6.542;2022-07-24T08:08:13;22.40;99.90
57108;DHT22;42987;52.916;6.542;2022-07-24T08:10:45;22.50;99.90
57108;DHT22;42987;52.916;6.542;2022-07-24T08:13:11;22.70;99.90
57108;DHT22;42987;52.916;6.542;2022-07-24T08:15:40;22.90;99.90
57108;DHT22;42987;52.916;6.542;2022-07-24T08:18:15;23.10;99.90
57108;DHT22;42987;52.916;6.542;2022-07-24T08:20:41;23.30;99.90
57108;DHT22;42987;52.916;6.542;2022-07-24T08:23:09;23.20;99.90
57108;DHT22;42987;52.916;6.542;2022-07-24T08:25:35;23.20;99.90
57108;DHT22;42987;52.916;6.542;2022-07-24T08:28:04;23.10;99.90
57108;DHT22;42987;52.916;6.542;2022-07-24T08:30:33;23.20;99.90
57108;DHT22;42987;52.916;6.542;2022-07-24T08:33:05;23.30;99.90
57108;DHT22;42987;52.916;6.542;2022-07-24T08:35:30;23.60;99.90
57108;DHT22;42987;52.916;6.542;2022-07-24T08:38:00;23.90;99.90
57108;DHT22;42987;52.916;6.542;2022-07-24T08:40:34;24.00;99.90
57108;DHT22;42987;52.916;6.542;2022-07-24T08:43:02;24.10;99.90
57108;DHT22;42987;52.916;6.542;2022-07-24T08:45:27;24.00;99.90
57108;DHT22;42987;52.916;6.542;2022-07-24T08:47:55;24.00;99.90
57108;DHT22;42987;52.916;6.542;2022-07-24T08:50:25;24.10;99.90
57108;DHT22;42987;52.916;6.542;2022-07-24T08:52:50;24.10;99.90
57108;DHT22;42987;52.916;6.542;2022-07-24T08:55:16;24.10;99.90
57108;DHT22;42987;52.916;6.542;2022-07-24T08:57:42;24.20;99.90
57108;DHT22;42987;52.916;6.542;2022-07-24T09:00:08;24.30;99.90
57108;DHT22;42987;52.916;6.542;2022-07-24T09:02:53;24.40;99.90
57108;DHT22;42987;52.916;6.542;2022-07-24T09:05:20;24.60;99.90
57108;DHT22;42987;52.916;6.542;2022-07-24T09:07:46;24.70;99.80
57108;DHT22;42987;52.916;6.542;2022-07-24T09:10:16;24.80;98.90
57108;DHT22;42987;52.916;6.542;2022-07-24T09:12:45;24.70;98.70
57108;DHT22;42987;52.916;6.542;2022-07-24T09:15:22;24.70;99.90
57108;DHT22;42987;52.916;6.542;2022-07-24T09:17:59;24.70;98.60
57108;DHT22;42987;52.916;6.542;2022-07-24T09:20:26;24.90;97.70
57108;DHT22;42987;52.916;6.542;2022-07-24T09:22:59;25.00;97.00
57108;DHT22;42987;52.916;6.542;2022-07-24T09:25:26;25.00;96.10
57108;DHT22;42987;52.916;6.542;2022-07-24T09:27:56;25.00;95.80
57108;DHT22;42987;52.916;6.542;2022-07-24T09:35:34;25.10;96.80
57108;DHT22;42987;52.916;6.542;2022-07-24T09:38:02;25.10;95.30
57108;DHT22;42987;52.916;6.542;2022-07-24T09:40:36;25.00;95.20
57108;DHT22;42987;52.916;6.542;2022-07-24T09:43:35;24.90;95.80
57108;DHT22;42987;52.916;6.542;2022-07-24T09:46:05;25.10;95.50
57108;DHT22;42987;52.916;6.542;2022-07-24T09:48:36;25.10;96.10
57108;DHT22;42987;52.916;6.542;2022-07-24T09:51:05;25.30;95.70
57108;DHT22;42987;52.916;6.542;2022-07-24T09:53:33;25.50;95.30
57108;DHT22;42987;52.916;6.542;2022-07-24T09:56:14;25.70;94.00
57108;DHT22;42987;52.916;6.542;2022-07-24T10:01:10;25.80;93.90
57108;DHT22;42987;52.916;6.542;2022-07-24T10:03:37;25.90;94.30
57108;DHT22;42987;52.916;6.542;2022-07-24T10:06:09;26.10;95.20
57108;DHT22;42987;52.916;6.542;2022-07-24T10:08:38;26.30;94.10
57108;DHT22;42987;52.916;6.542;2022-07-24T10:11:04;26.40;92.40
57108;DHT22;42987;52.916;6.542;2022-07-24T10:13:30;26.50;91.60
57108;DHT22;42987;52.916;6.542;2022-07-24T10:21:07;26.50;90.40
57108;DHT22;42987;52.916;6.542;2022-07-24T10:26:53;26.80;89.30
57108;DHT22;42987;52.916;6.542;2022-07-24T10:29:25;26.90;89.70
57108;DHT22;42987;52.916;6.542;2022-07-24T10:31:57;27.00;89.50
57108;DHT22;42987;52.916;6.542;2022-07-24T10:37:25;27.30;85.20
57108;DHT22;42987;52.916;6.542;2022-07-24T10:40:11;27.30;81.50
57108;DHT22;42987;52.916;6.542;2022-07-24T10:45:32;27.30;88.30
57108;DHT22;42987;52.916;6.542;2022-07-24T11:01:41;27.50;84.30
57108;DHT22;42987;52.916;6.542;2022-07-24T11:06:52;27.60;79.10
57108;DHT22;42987;52.916;6.542;2022-07-24T11:09:21;27.60;79.20
57108;DHT22;42987;52.916;6.542;2022-07-24T11:14:49;27.60;82.30
57108;DHT22;42987;52.916;6.542;2022-07-24T11:17:43;27.80;84.00
57108;DHT22;42987;52.916;6.542;2022-07-24T11:20:17;27.80;77.30
57108;DHT22;42987;52.916;6.542;2022-07-24T11:22:54;27.70;76.80
57108;DHT22;42987;52.916;6.542;2022-07-24T11:25:27;27.70;77.90
57108;DHT22;42987;52.916;6.542;2022-07-24T11:27:58;27.70;76.70
57108;DHT22;42987;52.916;6.542;2022-07-24T11:30:29;27.70;78.00
57108;DHT22;42987;52.916;6.542;2022-07-24T11:32:56;27.70;82.00
57108;DHT22;42987;52.916;6.542;2022-07-24T11:35:34;27.80;80.90
57108;DHT22;42987;52.916;6.542;2022-07-24T11:38:02;27.90;75.60
57108;DHT22;42987;52.916;6.542;2022-07-24T11:40:28;27.80;76.10
57108;DHT22;42987;52.916;6.542;2022-07-24T11:42:56;27.80;78.70
57108;DHT22;42987;52.916;6.542;2022-07-24T11:45:26;27.80;77.90
57108;DHT22;42987;52.916;6.542;2022-07-24T11:47:55;27.90;76.20
57108;DHT22;42987;52.916;6.542;2022-07-24T11:50:26;27.80;72.00
57108;DHT22;42987;52.916;6.542;2022-07-24T11:52:55;27.80;74.40
57108;DHT22;42987;52.916;6.542;2022-07-24T11:55:23;27.80;76.00
57108;DHT22;42987;52.916;6.542;2022-07-24T11:57:55;27.90;75.90
57108;DHT22;42987;52.916;6.542;2022-07-24T12:00:28;28.00;76.40
57108;DHT22;42987;52.916;6.542;2022-07-24T12:02:56;28.10;76.50
57108;DHT22;42987;52.916;6.542;2022-07-24T12:05:31;28.20;74.40
57108;DHT22;42987;52.916;6.542;2022-07-24T12:08:04;28.20;70.10
57108;DHT22;42987;52.916;6.542;2022-07-24T12:10:30;28.10;70.50
57108;DHT22;42987;52.916;6.542;2022-07-24T12:12:56;28.00;71.30
57108;DHT22;42987;52.916;6.542;2022-07-24T12:15:24;27.90;71.10
57108;DHT22;42987;52.916;6.542;2022-07-24T12:18:00;27.90;72.10
57108;DHT22;42987;52.916;6.542;2022-07-24T12:20:34;27.90;73.00
57108;DHT22;42987;52.916;6.542;2022-07-24T12:23:05;27.90;72.60
57108;DHT22;42987;52.916;6.542;2022-07-24T12:25:31;27.80;71.60
57108;DHT22;42987;52.916;6.542;2022-07-24T12:28:05;27.90;75.50
57108;DHT22;42987;52.916;6.542;2022-07-24T12:30:42;28.00;77.70
57108;DHT22;42987;52.916;6.542;2022-07-24T12:35:57;28.00;75.40
57108;DHT22;42987;52.916;6.542;2022-07-24T12:41:16;28.10;71.80
57108;DHT22;42987;52.916;6.542;2022-07-24T12:43:57;28.20;71.80
57108;DHT22;42987;52.916;6.542;2022-07-24T12:46:58;28.30;71.00
57108;DHT22;42987;52.916;6.542;2022-07-24T12:49:18;28.20;69.50
57108;DHT22;42987;52.916;6.542;2022-07-24T12:54:25;28.30;71.40
57108;DHT22;42987;52.916;6.542;2022-07-24T12:56:55;28.40;73.20
57108;DHT22;42987;52.916;6.542;2022-07-24T12:59:27;28.50;70.10
57108;DHT22;42987;52.916;6.542;2022-07-24T13:02:07;28.60;68.70
57108;DHT22;42987;52.916;6.542;2022-07-24T13:04:40;28.60;69.00
57108;DHT22;42987;52.916;6.542;2022-07-24T13:07:08;28.80;70.40
57108;DHT22;42987;52.916;6.542;2022-07-24T13:09:35;28.80;68.70
57108;DHT22;42987;52.916;6.542;2022-07-24T13:12:01;28.80;67.10
57108;DHT22;42987;52.916;6.542;2022-07-24T13:14:27;28.70;67.10
57108;DHT22;42987;52.916;6.542;2022-07-24T13:16:54;28.80;70.00
57108;DHT22;42987;52.916;6.542;2022-07-24T13:19:21;29.00;72.00
57108;DHT22;42987;52.916;6.542;2022-07-24T13:21:48;29.10;71.10
57108;DHT22;42987;52.916;6.542;2022-07-24T13:24:15;29.30;67.30
57108;DHT22;42987;52.916;6.542;2022-07-24T13:26:43;29.30;67.80
57108;DHT22;42987;52.916;6.542;2022-07-24T13:29:09;29.30;69.00
57108;DHT22;42987;52.916;6.542;2022-07-24T13:31:39;29.40;68.60
57108;DHT22;42987;52.916;6.542;2022-07-24T13:34:05;29.50;67.30
57108;DHT22;42987;52.916;6.542;2022-07-24T13:36:38;29.60;63.60
57108;DHT22;42987;52.916;6.542;2022-07-24T13:39:05;29.50;64.20
57108;DHT22;42987;52.916;6.542;2022-07-24T13:41:32;29.50;65.30
57108;DHT22;42987;52.916;6.542;2022-07-24T13:43:57;29.50;63.00
57108;DHT22;42987;52.916;6.542;2022-07-24T13:46:23;29.50;64.50
57108;DHT22;42987;52.916;6.542;2022-07-24T13:48:49;29.50;64.90
57108;DHT22;42987;52.916;6.542;2022-07-24T13:51:17;29.70;63.60
57108;DHT22;42987;52.916;6.542;2022-07-24T13:53:47;29.80;64.30
57108;DHT22;42987;52.916;6.542;2022-07-24T13:56:13;29.90;63.30
57108;DHT22;42987;52.916;6.542;2022-07-24T13:58:42;29.90;63.20
57108;DHT22;42987;52.916;6.542;2022-07-24T14:01:09;29.90;64.10
57108;DHT22;42987;52.916;6.542;2022-07-24T14:03:36;30.00;64.10
57108;DHT22;42987;52.916;6.542;2022-07-24T14:06:08;30.10;63.70
57108;DHT22;42987;52.916;6.542;2022-07-24T14:08:34;30.10;64.00
57108;DHT22;42987;52.916;6.542;2022-07-24T14:11:01;30.30;62.70
57108;DHT22;42987;52.916;6.542;2022-07-24T14:13:26;30.30;62.00
57108;DHT22;42987;52.916;6.542;2022-07-24T14:15:55;30.30;61.70
57108;DHT22;42987;52.916;6.542;2022-07-24T14:18:21;30.30;60.70
57108;DHT22;42987;52.916;6.542;2022-07-24T14:20:47;30.10;59.40
57108;DHT22;42987;52.916;6.542;2022-07-24T14:23:13;30.00;61.90
57108;DHT22;42987;52.916;6.542;2022-07-24T14:25:45;30.10;61.30
57108;DHT22;42987;52.916;6.542;2022-07-24T14:28:12;30.10;60.40
57108;DHT22;42987;52.916;6.542;2022-07-24T14:30:38;30.00;60.70
57108;DHT22;42987;52.916;6.542;2022-07-24T14:33:04;30.00;60.70
57108;DHT22;42987;52.916;6.542;2022-07-24T14:35:30;29.90;60.00
57108;DHT22;42987;52.916;6.542;2022-07-24T14:37:56;29.90;60.30
57108;DHT22;42987;52.916;6.542;2022-07-24T14:40:25;29.90;61.50
57108;DHT22;42987;52.916;6.542;2022-07-24T14:42:52;30.00;60.80
57108;DHT22;42987;52.916;6.542;2022-07-24T14:45:21;30.00;60.70
57108;DHT22;42987;52.916;6.542;2022-07-24T14:47:47;30.00;61.10
57108;DHT22;42987;52.916;6.542;2022-07-24T14:50:13;30.10;61.90
57108;DHT22;42987;52.916;6.542;2022-07-24T14:52:39;30.20;61.30
57108;DHT22;42987;52.916;6.542;2022-07-24T14:55:06;30.30;61.50
57108;DHT22;42987;52.916;6.542;2022-07-24T14:57:32;30.50;61.20
57108;DHT22;42987;52.916;6.542;2022-07-24T14:59:58;30.60;60.40
57108;DHT22;42987;52.916;6.542;2022-07-24T15:02:24;30.70;59.30
57108;DHT22;42987;52.916;6.542;2022-07-24T15:04:50;30.70;59.50
57108;DHT22;42987;52.916;6.542;2022-07-24T15:07:17;30.70;59.70
57108;DHT22;42987;52.916;6.542;2022-07-24T15:09:43;30.70;60.10
57108;DHT22;42987;52.916;6.542;2022-07-24T15:12:08;30.70;59.80
57108;DHT22;42987;52.916;6.542;2022-07-24T15:14:34;30.70;60.00
57108;DHT22;42987;52.916;6.542;2022-07-24T15:17:03;30.70;60.10
57108;DHT22;42987;52.916;6.542;2022-07-24T15:19:32;30.70;59.30
57108;DHT22;42987;52.916;6.542;2022-07-24T15:21:58;30.60;59.30
57108;DHT22;42987;52.916;6.542;2022-07-24T15:24:23;30.60;60.00
57108;DHT22;42987;52.916;6.542;2022-07-24T15:26:49;30.60;60.20
57108;DHT22;42987;52.916;6.542;2022-07-24T15:29:16;30.70;61.80
57108;DHT22;42987;52.916;6.542;2022-07-24T15:31:43;30.80;61.10
57108;DHT22;42987;52.916;6.542;2022-07-24T15:34:09;30.80;61.20
57108;DHT22;42987;52.916;6.542;2022-07-24T15:36:35;30.90;61.50
57108;DHT22;42987;52.916;6.542;2022-07-24T15:39:01;30.80;60.10
57108;DHT22;42987;52.916;6.542;2022-07-24T15:41:27;30.80;59.40
57108;DHT22;42987;52.916;6.542;2022-07-24T15:43:53;30.80;60.70
57108;DHT22;42987;52.916;6.542;2022-07-24T15:46:19;30.90;61.30
57108;DHT22;42987;52.916;6.542;2022-07-24T15:48:45;30.80;59.50
57108;DHT22;42987;52.916;6.542;2022-07-24T15:51:10;30.70;60.20
57108;DHT22;42987;52.916;6.542;2022-07-24T15:53:36;30.50;59.80
57108;DHT22;42987;52.916;6.542;2022-07-24T15:56:02;30.40;60.90
57108;DHT22;42987;52.916;6.542;2022-07-24T15:58:28;30.30;62.40
57108;DHT22;42987;52.916;6.542;2022-07-24T16:00:54;30.20;62.20
57108;DHT22;42987;52.916;6.542;2022-07-24T16:03:19;30.10;62.80
57108;DHT22;42987;52.916;6.542;2022-07-24T16:05:45;30.00;62.20
57108;DHT22;42987;52.916;6.542;2022-07-24T16:08:11;29.90;63.00
57108;DHT22;42987;52.916;6.542;2022-07-24T16:10:37;29.70;64.20
57108;DHT22;42987;52.916;6.542;2022-07-24T16:13:05;29.60;63.50
57108;DHT22;42987;52.916;6.542;2022-07-24T16:15:31;29.60;63.70
57108;DHT22;42987;52.916;6.542;2022-07-24T16:17:58;29.50;64.30
57108;DHT22;42987;52.916;6.542;2022-07-24T16:20:27;29.40;63.20
57108;DHT22;42987;52.916;6.542;2022-07-24T16:22:53;29.40;65.30